Time;durP1;ratioP1;P1;durP2;ratioP2;P2;SDS_P1;SDS_P2;PMS_P1;PMS_P2;Temp;Humidity;BMP_temperature;BMP_pressure;BME280_temperature;BME280_humidity;BME280_pressure;Samples;Min_cycle;Max_cycle;Signal;HPM_P1;HPM_P2
2022/03/21 00:01:17;;;;;;;26.83;14.73;;;9.40;77.90;;;;;;10476938;28;20131;-63
2022/03/21 00:06:18;;;;;;;25.08;14.65;;;9.10;77.80;;;;;;10473592;28;20117;-64
2022/03/21 00:11:19;;;;;;;24.20;13.80;;;9.10;77.80;;;;;;10480454;28;20043;-64
2022/03/21 00:16:20;;;;;;;19.08;12.15;;;9.10;77.70;;;;;;10483636;28;20035;-63
2022/03/21 00:21:21;;;;;;;24.05;13.15;;;9.10;77.70;;;;;;10468118;28;20103;-64
2022/03/21 00:26:22;;;;;;;23.65;13.73;;;9.00;77.70;;;;;;10470006;28;20021;-65
2022/03/21 00:31:22;;;;;;;22.27;13.35;;;9.00;77.70;;;;;;10479378;28;20098;-64
2022/03/21 00:36:23;;;;;;;21.23;13.02;;;9.00;77.70;;;;;;10483833;28;20029;-65
2022/03/21 00:41:25;;;;;;;23.95;13.30;;;9.00;77.60;;;;;;10482982;28;20140;-64
2022/03/21 00:46:26;;;;;;;21.65;13.00;;;9.00;77.70;;;;;;10466449;28;20429;-63
2022/03/21 00:51:26;;;;;;;21.70;12.30;;;8.90;77.60;;;;;;10465850;28;20032;-65
2022/03/21 00:56:27;;;;;;;24.95;13.63;;;8.90;77.60;;;;;;10489992;28;20052;-64
2022/03/21 01:01:29;;;;;;;23.20;13.80;;;8.90;78.20;;;;;;10490160;28;20039;-65
2022/03/21 01:06:29;;;;;;;23.63;13.98;;;8.90;77.50;;;;;;10477547;28;20422;-65
2022/03/21 01:11:30;;;;;;;23.63;13.55;;;8.90;77.50;;;;;;10489060;28;20048;-64
2022/03/21 01:16:31;;;;;;;24.40;14.07;;;8.80;77.50;;;;;;10483343;28;20440;-64
2022/03/21 01:21:32;;;;;;;26.08;14.27;;;8.90;77.50;;;;;;10477603;28;20044;-64
2022/03/21 01:26:33;;;;;;;24.17;14.35;;;8.80;77.50;;;;;;10481579;28;20123;-65
2022/03/21 01:31:34;;;;;;;25.15;14.63;;;8.80;77.50;;;;;;10484235;28;20032;-64
2022/03/21 01:36:34;;;;;;;24.23;13.90;;;8.80;77.40;;;;;;10489006;28;20037;-63
2022/03/21 01:41:35;;;;;;;22.25;13.70;;;8.70;77.30;;;;;;10483415;28;20240;-64
2022/03/21 01:46:37;;;;;;;24.25;14.18;;;8.70;77.40;;;;;;10480312;28;20060;-64
2022/03/21 01:51:40;;;;;;;22.00;12.90;;;8.70;77.40;;;;;;10475154;28;20484;-63
2022/03/21 01:56:42;;;;;;;25.23;13.52;;;8.70;77.40;;;;;;10487845;28;20052;-63
2022/03/21 02:01:43;;;;;;;21.25;12.43;;;8.70;77.40;;;;;;10481002;28;20471;-60
2022/03/21 02:06:45;;;;;;;19.98;12.43;;;8.70;77.50;;;;;;10474427;28;20021;-65
2022/03/21 02:11:45;;;;;;;21.77;12.32;;;8.60;77.40;;;;;;10489890;28;20039;-64
2022/03/21 02:16:46;;;;;;;19.38;11.82;;;8.60;77.40;;;;;;10487121;28;20024;-62
2022/03/21 02:22:05;;;;;;;22.08;12.77;;;8.60;77.40;;;;;;10475184;28;20035;-63
2022/03/21 02:27:08;;;;;;;19.02;11.35;;;8.60;77.40;;;;;;10481437;28;20037;-65
2022/03/21 02:32:09;;;;;;;17.92;11.27;;;8.70;77.40;;;;;;10488295;28;20512;-62
2022/03/21 02:37:16;;;;;;;18.30;11.93;;;8.50;77.30;;;;;;10489368;28;20066;-62
2022/03/21 02:42:17;;;;;;;21.08;12.60;;;8.60;77.40;;;;;;10467838;28;20036;-63
2022/03/21 02:47:18;;;;;;;21.58;12.40;;;8.50;77.30;;;;;;10483710;28;20029;-64
2022/03/21 02:52:20;;;;;;;21.50;12.23;;;8.50;77.30;;;;;;10474529;28;20040;-65
2022/03/21 02:57:21;;;;;;;22.25;12.73;;;8.50;77.20;;;;;;10479353;28;20413;-64
2022/03/21 03:02:22;;;;;;;23.45;14.20;;;8.50;77.20;;;;;;10479717;28;20486;-62
2022/03/21 03:07:22;;;;;;;23.00;13.30;;;8.50;77.30;;;;;;10472386;28;20017;-63
2022/03/21 03:12:23;;;;;;;25.60;13.60;;;8.50;77.30;;;;;;10485542;28;20036;-65
2022/03/21 03:17:24;;;;;;;27.17;14.77;;;8.40;77.20;;;;;;10484012;28;20111;-63
2022/03/21 03:22:26;;;;;;;25.90;14.23;;;8.40;77.30;;;;;;10473297;28;20045;-63
2022/03/21 03:27:27;;;;;;;26.85;14.80;;;8.50;77.30;;;;;;10471930;28;20494;-62
2022/03/21 03:32:29;;;;;;;28.77;14.38;;;8.40;77.30;;;;;;10466334;28;20174;-65
2022/03/21 03:37:29;;;;;;;28.50;15.10;;;8.40;77.30;;;;;;10484996;28;20035;-63
2022/03/21 03:42:30;;;;;;;26.58;13.98;;;8.40;77.30;;;;;;10486322;28;20032;-64
2022/03/21 03:47:31;;;;;;;27.73;14.05;;;8.30;77.30;;;;;;10476540;28;20440;-63
2022/03/21 03:52:32;;;;;;;26.90;14.23;;;8.30;77.30;;;;;;10474500;28;20497;-64
2022/03/21 03:57:33;;;;;;;27.67;13.50;;;8.30;77.30;;;;;;10470904;28;20063;-62
2022/03/21 04:03:44;;;;;;;24.77;13.73;;;8.30;77.30;;;;;;10471624;28;20025;-64
2022/03/21 04:07:55;;;;;;;25.45;13.90;;;8.30;77.40;;;;;;10467004;28;20044;-64
2022/03/21 04:12:56;;;;;;;23.58;13.18;;;8.30;77.30;;;;;;10480885;28;20029;-63
2022/03/21 04:18:02;;;;;;;22.63;12.38;;;8.30;77.30;;;;;;10478328;28;20033;-64
2022/03/21 04:23:04;;;;;;;23.95;12.45;;;8.30;77.40;;;;;;10480746;28;20379;-63
2022/03/21 04:28:12;;;;;;;25.35;13.20;;;8.30;77.40;;;;;;10475559;28;20325;-65
2022/03/21 04:33:13;;;;;;;22.83;12.45;;;8.50;77.60;;;;;;10491946;28;20060;-64
2022/03/21 04:38:14;;;;;;;25.88;13.27;;;8.20;77.40;;;;;;10485825;28;20028;-61
2022/03/21 04:43:17;;;;;;;24.58;12.85;;;8.20;78.10;;;;;;10482102;28;20055;-63
2022/03/21 04:48:18;;;;;;;27.65;13.15;;;8.20;77.50;;;;;;10491425;28;20059;-62
2022/03/21 04:53:19;;;;;;;22.83;12.95;;;8.20;77.50;;;;;;10477693;28;20044;-63
2022/03/21 04:58:20;;;;;;;24.67;12.02;;;8.20;77.50;;;;;;10480371;28;20474;-64
2022/03/21 05:03:22;;;;;;;25.42;12.00;;;8.10;77.40;;;;;;10474437;28;20063;-64
2022/03/21 05:08:23;;;;;;;23.35;12.38;;;8.20;77.60;;;;;;10481649;28;20123;-64
2022/03/21 05:13:24;;;;;;;25.77;12.00;;;8.10;77.50;;;;;;10490225;28;20119;-63
2022/03/21 05:18:24;;;;;;;22.88;12.25;;;8.10;78.10;;;;;;10482396;28;20584;-63
2022/03/21 05:39:23;;;;;;;21.75;10.63;;;8.00;77.30;;;;;;10476503;28;20040;-64
2022/03/21 05:44:24;;;;;;;22.70;10.73;;;8.00;77.80;;;;;;10487328;28;20162;-61
2022/03/21 05:49:25;;;;;;;20.73;10.55;;;8.00;77.60;;;;;;10484572;28;20029;-63
2022/03/21 05:54:26;;;;;;;21.75;11.02;;;8.00;77.60;;;;;;10480713;28;20605;-62
2022/03/21 06:04:48;;;;;;;22.65;10.73;;;8.00;77.60;;;;;;10488798;28;20035;-59
2022/03/21 06:09:49;;;;;;;17.92;9.95;;;8.10;77.60;;;;;;10475104;28;20039;-63
2022/03/21 06:14:50;;;;;;;18.50;10.18;;;8.00;77.50;;;;;;10488261;28;20028;-64
2022/03/21 06:19:51;;;;;;;17.77;9.68;;;8.00;77.40;;;;;;10465189;28;20031;-64
2022/03/21 06:24:52;;;;;;;18.20;9.95;;;7.90;77.40;;;;;;10474499;28;20020;-67
2022/03/21 06:29:53;;;;;;;13.25;8.15;;;8.00;77.30;;;;;;10480647;28;20492;-63
2022/03/21 06:34:54;;;;;;;13.70;8.18;;;8.00;77.30;;;;;;10480523;28;20420;-64
2022/03/21 06:39:55;;;;;;;14.35;8.27;;;8.00;77.30;;;;;;10487004;28;20036;-60
2022/03/21 06:44:56;;;;;;;14.73;8.38;;;8.00;77.20;;;;;;10481390;28;20110;-64
2022/03/21 06:49:56;;;;;;;15.07;8.43;;;8.00;77.20;;;;;;10477934;28;20045;-60
2022/03/21 06:54:57;;;;;;;14.70;8.13;;;8.00;77.20;;;;;;10480772;28;20427;-63
2022/03/21 06:59:58;;;;;;;16.70;8.50;;;8.00;77.20;;;;;;10476371;28;20043;-66
2022/03/21 07:04:58;;;;;;;15.75;8.70;;;8.00;77.80;;;;;;10483822;28;20024;-60
2022/03/21 07:10:00;;;;;;;16.05;8.68;;;8.00;77.20;;;;;;10470705;28;20110;-61
2022/03/21 07:15:04;;;;;;;14.20;8.55;;;8.00;77.20;;;;;;10483823;28;20382;-62
2022/03/21 07:20:05;;;;;;;14.88;8.13;;;8.10;77.30;;;;;;10460791;28;20036;-64
2022/03/21 07:25:07;;;;;;;17.42;8.98;;;8.10;77.20;;;;;;10462242;28;20020;-65
2022/03/21 07:30:08;;;;;;;13.60;7.85;;;8.20;77.20;;;;;;10472909;28;21425;-59
2022/03/21 07:35:10;;;;;;;13.43;7.53;;;8.30;77.10;;;;;;10475198;28;20021;-62
2022/03/21 07:40:11;;;;;;;14.57;7.68;;;8.40;77.60;;;;;;10451434;28;20097;-61
2022/03/21 07:50:33;;;;;;;17.65;8.25;;;8.60;76.90;;;;;;10448621;28;20546;-61
2022/03/21 07:55:34;;;;;;;15.23;8.35;;;8.80;76.90;;;;;;10452498;28;20065;-63
2022/03/21 08:00:36;;;;;;;16.85;8.75;;;8.90;76.80;;;;;;10456519;28;20032;-63
2022/03/21 08:05:37;;;;;;;19.15;8.95;;;9.00;76.80;;;;;;10480655;28;20529;-63
2022/03/21 08:10:38;;;;;;;18.33;8.65;;;9.10;76.80;;;;;;10482827;28;20478;-64
2022/03/21 08:15:39;;;;;;;15.60;8.38;;;9.20;76.80;;;;;;10484306;28;20032;-62
2022/03/21 08:20:43;;;;;;;14.95;7.88;;;9.20;76.80;;;;;;10472682;28;20038;-63
2022/03/21 08:25:48;;;;;;;16.00;8.32;;;9.20;76.90;;;;;;10464419;28;20063;-63
2022/03/21 08:30:49;;;;;;;16.25;8.32;;;9.30;77.00;;;;;;10482696;28;20509;-64
2022/03/21 08:35:50;;;;;;;16.90;8.15;;;9.30;77.20;;;;;;10477944;28;20487;-75
2022/03/21 08:40:50;;;;;;;17.58;8.77;;;9.30;77.20;;;;;;10463859;28;20384;-63
2022/03/21 08:45:51;;;;;;;15.23;8.05;;;9.30;77.30;;;;;;10472938;28;20033;-64
2022/03/21 08:50:52;;;;;;;14.85;8.35;;;9.40;77.50;;;;;;10448134;28;20515;-63
2022/03/21 08:55:53;;;;;;;17.67;8.55;;;9.40;77.60;;;;;;10449978;28;20403;-63
2022/03/21 09:00:53;;;;;;;15.68;8.63;;;9.40;77.60;;;;;;10451448;28;20027;-63
2022/03/21 09:05:54;;;;;;;15.38;8.30;;;9.50;77.80;;;;;;10461232;28;20079;-64
2022/03/21 09:10:55;;;;;;;14.80;7.93;;;9.50;77.80;;;;;;10477412;28;20654;-62
2022/03/21 09:15:56;;;;;;;18.10;8.38;;;9.50;78.00;;;;;;10471198;28;20031;-63
2022/03/21 09:20:57;;;;;;;19.48;8.00;;;9.50;78.10;;;;;;10466065;28;20044;-63
2022/03/21 09:25:57;;;;;;;17.10;8.00;;;9.60;78.10;;;;;;10459035;28;20035;-64
2022/03/21 09:30:59;;;;;;;15.27;8.15;;;9.60;78.20;;;;;;10479844;28;20043;-63
2022/03/21 09:36:00;;;;;;;16.58;8.02;;;9.70;78.30;;;;;;10478500;28;20040;-63
2022/03/21 09:41:01;;;;;;;16.42;8.45;;;9.70;78.30;;;;;;10476914;28;20037;-64
2022/03/21 09:46:04;;;;;;;15.55;8.88;;;9.80;78.90;;;;;;10485450;28;20104;-64
2022/03/21 09:51:04;;;;;;;20.02;9.05;;;9.90;78.40;;;;;;10467143;28;20660;-64
2022/03/21 09:56:08;;;;;;;18.40;8.95;;;9.90;78.20;;;;;;10480361;28;20045;-63
2022/03/21 10:01:12;;;;;;;20.00;9.48;;;10.00;78.10;;;;;;10467833;28;20440;-64
2022/03/21 10:06:28;;;;;;;18.65;9.73;;;10.10;78.00;;;;;;10462048;28;20059;-63
2022/03/21 10:11:28;;;;;;;22.08;8.85;;;10.20;78.20;;;;;;10485229;28;20043;-62
2022/03/21 10:16:29;;;;;;;20.08;9.73;;;10.20;77.80;;;;;;10472015;28;20036;-63
2022/03/21 10:21:30;;;;;;;19.20;9.43;;;10.30;77.80;;;;;;10470180;28;20033;-64
2022/03/21 10:26:41;;;;;;;18.67;9.48;;;10.40;77.80;;;;;;10474414;28;20051;-63
2022/03/21 10:31:48;;;;;;;18.38;8.82;;;10.40;77.70;;;;;;10468145;28;20060;-63
2022/03/21 10:37:05;;;;;;;23.92;10.35;;;10.50;77.70;;;;;;10474092;28;20512;-62
2022/03/21 10:42:09;;;;;;;22.73;9.20;;;10.60;77.80;;;;;;10486435;28;20033;-63
2022/03/21 10:47:09;;;;;;;20.58;9.10;;;10.70;77.50;;;;;;10480484;28;20077;-64
2022/03/21 10:52:17;;;;;;;22.70;9.43;;;10.80;77.40;;;;;;10471187;28;20082;-64
2022/03/21 10:57:31;;;;;;;18.42;9.68;;;10.90;77.50;;;;;;10486935;28;20063;-62
2022/03/21 11:02:32;;;;;;;15.88;8.63;;;10.90;77.40;;;;;;10484475;28;20029;-62
2022/03/21 11:07:32;;;;;;;19.48;9.32;;;11.00;77.20;;;;;;10478717;28;20036;-61
2022/03/21 11:12:34;;;;;;;20.30;9.60;;;11.10;77.10;;;;;;10486511;28;20043;-63
2022/03/21 11:17:36;;;;;;;19.10;8.68;;;11.20;77.00;;;;;;10482947;28;20017;-62
2022/03/21 11:22:38;;;;;;;18.27;9.38;;;11.20;77.00;;;;;;10469219;28;20012;-63
2022/03/21 11:28:02;;;;;;;21.98;9.48;;;11.30;76.90;;;;;;10469217;28;20384;-62
2022/03/21 11:33:10;;;;;;;21.50;9.73;;;11.40;76.80;;;;;;10469905;28;20025;-61
2022/03/21 11:38:22;;;;;;;19.00;9.25;;;11.50;76.70;;;;;;10475211;28;20024;-62
2022/03/21 11:43:25;;;;;;;21.27;10.13;;;11.50;76.70;;;;;;10481750;28;20029;-62
2022/03/21 11:48:28;;;;;;;17.23;8.45;;;11.60;76.60;;;;;;10479609;28;20086;-64
2022/03/21 11:53:33;;;;;;;20.67;9.15;;;11.70;76.50;;;;;;10478574;28;20410;-64
2022/03/21 11:58:40;;;;;;;19.77;9.07;;;11.70;76.40;;;;;;10468331;28;20031;-65
2022/03/21 12:03:42;;;;;;;20.40;8.80;;;11.80;76.30;;;;;;10479463;28;20027;-63
2022/03/21 12:08:51;;;;;;;19.25;8.98;;;11.90;76.20;;;;;;10469841;28;20090;-61
2022/03/21 12:14:36;;;;;;;21.67;9.40;;;12.00;76.20;;;;;;10483259;28;20469;-63
2022/03/21 12:19:48;;;;;;;22.38;9.13;;;12.10;76.10;;;;;;10477412;28;20030;-63
2022/03/21 12:24:49;;;;;;;21.25;9.80;;;12.10;75.80;;;;;;10480223;28;20520;-63
2022/03/21 12:29:50;;;;;;;19.15;9.73;;;12.20;76.10;;;;;;10473802;28;20043;-64
2022/03/21 12:34:52;;;;;;;16.65;9.32;;;12.30;75.90;;;;;;10474686;28;20036;-64
2022/03/21 12:39:53;;;;;;;19.92;9.25;;;12.30;75.80;;;;;;10486389;28;20034;-61
2022/03/21 12:44:54;;;;;;;18.73;9.10;;;12.40;75.80;;;;;;10478450;28;20244;-61
2022/03/21 12:49:55;;;;;;;22.52;9.60;;;12.40;75.70;;;;;;10483464;28;20033;-62
2022/03/21 12:54:57;;;;;;;19.35;9.07;;;12.50;75.70;;;;;;10488947;28;20188;-61
2022/03/21 13:00:14;;;;;;;18.35;9.32;;;12.50;75.60;;;;;;10481874;28;20024;-62
2022/03/21 13:10:36;;;;;;;16.80;8.52;;;12.60;75.60;;;;;;10480125;28;20452;-63
2022/03/21 13:15:37;;;;;;;16.52;8.52;;;12.60;75.60;;;;;;10490266;28;20070;-62
2022/03/21 13:20:45;;;;;;;18.42;10.13;;;12.70;75.50;;;;;;10468488;28;20237;-62
2022/03/21 13:25:46;;;;;;;16.58;9.48;;;12.70;75.50;;;;;;10480628;28;20211;-61
2022/03/21 13:31:01;;;;;;;22.02;9.50;;;12.80;75.50;;;;;;10485959;28;20083;-62
2022/03/21 13:36:04;;;;;;;24.17;9.00;;;12.80;75.40;;;;;;10489603;28;20044;-64
2022/03/21 13:41:16;;;;;;;17.10;9.52;;;12.80;75.40;;;;;;10468688;28;20036;-64
2022/03/21 13:46:24;;;;;;;18.48;8.88;;;12.90;75.40;;;;;;10473343;28;20039;-64
2022/03/21 13:51:26;;;;;;;20.25;8.65;;;13.00;75.40;;;;;;10480429;28;20392;-65
2022/03/21 13:56:29;;;;;;;20.58;8.88;;;13.10;75.50;;;;;;10487985;28;20136;-63
2022/03/21 14:01:30;;;;;;;19.52;8.70;;;13.20;75.50;;;;;;10463562;28;20033;-63
2022/03/21 14:06:30;;;;;;;29.40;11.07;;;13.30;75.40;;;;;;10467762;28;20047;-67
2022/03/21 14:11:33;;;;;;;25.73;12.25;;;13.60;74.90;;;;;;10487897;28;20526;-67
2022/03/21 14:16:34;;;;;;;25.75;11.75;;;14.00;73.60;;;;;;10480741;28;20478;-66
2022/03/21 14:21:36;;;;;;;34.38;12.02;;;14.50;72.50;;;;;;10471940;28;20025;-67
2022/03/21 14:26:40;;;;;;;24.35;11.93;;;14.80;71.60;;;;;;10480666;28;20480;-67
2022/03/21 14:31:41;;;;;;;26.88;12.02;;;15.00;70.60;;;;;;10467521;28;20097;-63
2022/03/21 14:36:43;;;;;;;25.40;12.27;;;15.30;70.20;;;;;;10486124;28;20042;-65
2022/03/21 14:41:45;;;;;;;27.67;13.43;;;15.40;69.90;;;;;;10485310;28;20553;-67
2022/03/21 14:46:45;;;;;;;25.38;12.10;;;15.40;70.10;;;;;;10478745;28;20039;-65
2022/03/21 14:51:46;;;;;;;23.00;11.63;;;15.60;70.00;;;;;;10471537;28;20036;-66
2022/03/21 14:56:47;;;;;;;26.38;12.50;;;15.70;70.10;;;;;;10466568;28;20053;-65
2022/03/21 15:01:48;;;;;;;30.63;12.82;;;15.70;70.00;;;;;;10453752;28;20029;-67
2022/03/21 15:06:48;;;;;;;26.83;12.23;;;15.70;69.70;;;;;;10455255;28;20533;-63
2022/03/21 15:11:50;;;;;;;28.55;12.88;;;15.80;70.00;;;;;;10458701;28;20052;-66
2022/03/21 15:16:51;;;;;;;31.50;14.00;;;15.80;69.80;;;;;;10470219;28;20040;-66
2022/03/21 15:21:52;;;;;;;25.83;12.93;;;15.80;69.80;;;;;;10453450;28;20025;-65
2022/03/21 15:26:54;;;;;;;21.58;12.48;;;15.80;70.00;;;;;;10449724;28;20028;-64
2022/03/21 15:31:54;;;;;;;23.73;11.82;;;15.60;70.30;;;;;;10455239;28;20445;-64
2022/03/21 15:42:15;;;;;;;32.72;12.55;;;15.20;71.20;;;;;;10435390;28;20585;-64
2022/03/21 15:47:16;;;;;;;24.05;12.18;;;15.00;71.40;;;;;;10451673;28;20017;-65
2022/03/21 15:52:17;;;;;;;23.58;12.52;;;14.90;71.70;;;;;;10450598;28;20393;-65
2022/03/21 15:57:18;;;;;;;24.38;11.55;;;14.80;71.70;;;;;;10449532;28;20058;-64
2022/03/21 16:02:20;;;;;;;24.83;12.80;;;14.80;72.10;;;;;;10451771;28;20037;-65
2022/03/21 16:07:20;;;;;;;25.65;12.45;;;14.70;72.30;;;;;;10467210;28;20479;-65
2022/03/21 16:12:21;;;;;;;22.63;10.77;;;14.60;72.50;;;;;;10484184;28;20048;-66
2022/03/21 16:17:22;;;;;;;24.08;12.75;;;14.60;72.70;;;;;;10492453;28;20024;-66
2022/03/21 16:22:23;;;;;;;21.85;12.02;;;14.50;72.70;;;;;;10481231;28;20025;-68
2022/03/21 16:27:26;;;;;;;27.73;12.25;;;14.50;72.90;;;;;;10466461;28;20017;-65
2022/03/21 16:32:27;;;;;;;25.65;11.77;;;14.40;72.90;;;;;;10482385;28;20045;-68
2022/03/21 16:37:28;;;;;;;27.50;13.30;;;14.30;73.00;;;;;;10479690;28;20025;-62
2022/03/21 16:42:29;;;;;;;31.58;14.57;;;14.30;73.60;;;;;;10467957;28;20060;-67
2022/03/21 16:47:31;;;;;;;31.73;13.45;;;14.20;73.90;;;;;;10490436;28;20128;-69
2022/03/21 16:52:32;;;;;;;31.70;13.30;;;14.20;74.20;;;;;;10472779;28;20048;-70
2022/03/21 16:57:33;;;;;;;27.52;13.25;;;14.20;74.20;;;;;;10484009;28;20037;-66
2022/03/21 17:02:38;;;;;;;32.13;14.23;;;14.20;74.60;;;;;;10481277;28;20417;-69
2022/03/21 17:07:40;;;;;;;29.20;14.27;;;14.10;74.90;;;;;;10476082;28;20048;-64
2022/03/21 17:12:45;;;;;;;31.17;13.20;;;14.00;75.10;;;;;;10475786;28;20063;-66
2022/03/21 17:17:46;;;;;;;27.52;13.90;;;13.90;75.20;;;;;;10453942;28;20490;-64
2022/03/21 17:28:07;;;;;;;28.73;14.07;;;13.70;76.40;;;;;;10469756;28;20556;-66
2022/03/21 17:33:09;;;;;;;35.35;14.40;;;13.50;76.90;;;;;;10444072;28;20201;-68
2022/03/21 17:38:10;;;;;;;32.00;13.85;;;13.40;77.60;;;;;;10459077;28;20041;-68
2022/03/21 17:43:12;;;;;;;27.25;13.93;;;13.30;78.30;;;;;;10456419;28;20017;-68
2022/03/21 17:48:15;;;;;;;32.97;15.25;;;13.20;78.80;;;;;;10463168;28;20045;-66
2022/03/21 17:53:27;;;;;;;29.73;14.02;;;13.10;79.60;;;;;;10468061;28;20025;-63
2022/03/21 17:58:30;;;;;;;30.33;12.77;;;13.10;80.30;;;;;;10465219;28;20037;-67
2022/03/21 18:03:31;;;;;;;27.08;13.20;;;13.10;79.90;;;;;;10486101;28;20092;-62
2022/03/21 18:08:33;;;;;;;28.23;12.88;;;13.20;79.80;;;;;;10486573;28;20037;-63
2022/03/21 18:13:35;;;;;;;25.00;11.85;;;13.30;79.70;;;;;;10488704;28;20146;-64
2022/03/21 18:18:36;;;;;;;31.05;13.30;;;13.30;79.60;;;;;;10480743;28;20040;-64
2022/03/21 18:23:38;;;;;;;22.75;11.45;;;13.30;79.50;;;;;;10473260;28;20037;-64
2022/03/21 18:28:40;;;;;;;23.80;13.20;;;13.30;79.50;;;;;;10474375;28;20036;-65
2022/03/21 18:33:42;;;;;;;25.38;12.25;;;13.30;79.50;;;;;;10469825;28;20028;-64
2022/03/21 18:38:43;;;;;;;21.20;10.63;;;13.30;79.50;;;;;;10480748;28;20476;-62
2022/03/21 18:43:46;;;;;;;21.80;11.95;;;13.30;80.10;;;;;;10468645;28;20028;-63
2022/03/21 18:48:47;;;;;;;20.15;11.02;;;13.30;79.40;;;;;;10482270;28;20051;-62
2022/03/21 18:53:49;;;;;;;21.85;11.00;;;13.30;79.40;;;;;;10471811;28;20135;-64
2022/03/21 18:58:50;;;;;;;22.42;11.30;;;13.30;79.40;;;;;;10475004;28;20037;-64
2022/03/21 19:03:52;;;;;;;21.17;10.70;;;13.20;79.30;;;;;;10450303;28;20227;-64
2022/03/21 19:08:54;;;;;;;21.73;9.90;;;13.20;79.40;;;;;;10462042;28;20163;-65
2022/03/21 19:13:55;;;;;;;21.73;10.88;;;13.20;79.40;;;;;;10469687;28;20029;-63
2022/03/21 19:18:57;;;;;;;20.40;9.82;;;13.20;80.00;;;;;;10475289;28;20079;-64
2022/03/21 19:23:58;;;;;;;35.25;12.02;;;13.10;79.40;;;;;;10469597;28;20033;-62
2022/03/21 19:29:01;;;;;;;22.63;11.60;;;13.10;79.40;;;;;;10442478;28;20123;-63
2022/03/21 19:34:06;;;;;;;20.75;10.90;;;13.10;79.40;;;;;;10470208;28;20067;-63
2022/03/21 19:39:07;;;;;;;23.58;11.38;;;13.10;79.50;;;;;;10464615;28;20979;-63
2022/03/21 19:44:09;;;;;;;23.38;11.93;;;13.00;79.40;;;;;;10471121;28;20112;-63
2022/03/21 19:49:11;;;;;;;19.67;10.70;;;13.00;79.50;;;;;;10474157;28;20423;-62
2022/03/21 19:54:14;;;;;;;23.15;12.25;;;12.90;79.40;;;;;;10470670;28;20064;-61
2022/03/21 19:59:17;;;;;;;20.10;10.80;;;12.90;79.50;;;;;;10467902;28;20068;-63
2022/03/21 20:04:21;;;;;;;24.80;12.05;;;12.90;79.50;;;;;;10476811;28;20117;-61
2022/03/21 20:09:23;;;;;;;22.90;11.60;;;12.90;79.50;;;;;;10477627;28;20028;-63
2022/03/21 20:14:25;;;;;;;29.27;11.95;;;12.80;79.40;;;;;;10475248;28;20051;-63
2022/03/21 20:19:26;;;;;;;24.55;12.32;;;12.80;79.40;;;;;;10476682;28;20047;-64
2022/03/21 20:24:27;;;;;;;24.70;12.93;;;12.80;79.50;;;;;;10472858;28;20123;-64
2022/03/21 20:29:29;;;;;;;25.88;12.65;;;12.80;79.50;;;;;;10475862;28;20371;-66
2022/03/21 20:34:30;;;;;;;27.58;13.32;;;12.70;79.50;;;;;;10477679;28;20029;-63
2022/03/21 20:39:32;;;;;;;25.42;12.88;;;12.70;79.50;;;;;;10475345;28;20115;-65
2022/03/21 20:44:34;;;;;;;26.10;13.10;;;12.70;79.50;;;;;;10470343;28;20065;-66
2022/03/21 20:49:36;;;;;;;25.58;12.90;;;12.60;79.50;;;;;;10456916;28;20041;-65
2022/03/21 20:54:39;;;;;;;27.10;13.98;;;12.60;79.50;;;;;;10447212;28;20048;-65
2022/03/21 20:59:40;;;;;;;26.00;13.73;;;12.50;79.50;;;;;;10457711;28;20064;-66
2022/03/21 21:04:42;;;;;;;27.63;13.98;;;12.50;79.50;;;;;;10464510;28;20021;-65
2022/03/21 21:09:43;;;;;;;24.88;12.68;;;12.50;79.50;;;;;;10461034;28;20036;-62
2022/03/21 21:14:46;;;;;;;26.88;13.75;;;12.50;79.50;;;;;;10465098;28;20016;-65
2022/03/21 21:19:48;;;;;;;26.08;14.00;;;12.40;79.50;;;;;;10460630;28;20511;-65
2022/03/21 21:24:49;;;;;;;27.77;14.10;;;12.40;79.50;;;;;;10461612;28;20040;-64
2022/03/21 21:29:50;;;;;;;26.30;13.50;;;12.40;79.50;;;;;;10461325;28;20028;-65
2022/03/21 21:34:51;;;;;;;25.55;13.27;;;12.30;79.60;;;;;;10460277;28;20018;-65
2022/03/21 21:39:52;;;;;;;26.88;13.30;;;12.30;79.60;;;;;;10469973;28;20029;-66
2022/03/21 21:44:52;;;;;;;29.30;13.68;;;12.30;79.60;;;;;;10446213;28;20041;-66
2022/03/21 21:49:53;;;;;;;30.58;15.07;;;12.20;79.50;;;;;;10484887;28;20032;-64
2022/03/21 21:54:54;;;;;;;27.73;13.60;;;12.20;79.50;;;;;;10470285;28;20041;-66
2022/03/21 21:59:55;;;;;;;27.75;14.25;;;12.20;79.50;;;;;;10455622;28;20314;-69
2022/03/21 22:04:58;;;;;;;25.92;13.85;;;12.20;79.60;;;;;;10480261;28;20016;-66
2022/03/21 22:09:59;;;;;;;25.77;13.88;;;12.10;79.50;;;;;;10475007;28;20044;-66
2022/03/21 22:15:01;;;;;;;26.95;13.55;;;12.10;79.50;;;;;;10473379;28;20059;-66
2022/03/21 22:20:03;;;;;;;28.50;13.95;;;12.10;79.60;;;;;;10453544;28;20033;-65
2022/03/21 22:25:05;;;;;;;26.67;13.98;;;12.00;79.60;;;;;;10452945;28;20040;-65
2022/03/21 22:30:06;;;;;;;26.60;13.73;;;12.00;79.60;;;;;;10453118;28;20028;-64
2022/03/21 22:35:08;;;;;;;25.40;12.95;;;12.00;79.60;;;;;;10454012;28;20392;-65
2022/03/21 22:50:48;;;;;;;26.30;13.52;;;11.90;79.60;;;;;;10472985;28;20097;-65
2022/03/21 22:55:49;;;;;;;30.20;14.10;;;11.90;79.60;;;;;;10476890;28;20102;-65
2022/03/21 23:00:50;;;;;;;27.63;14.13;;;11.80;79.60;;;;;;10483397;28;20105;-65
2022/03/21 23:05:51;;;;;;;27.98;14.10;;;11.80;79.70;;;;;;10473941;28;20028;-66
2022/03/21 23:10:56;;;;;;;28.90;14.63;;;11.80;79.70;;;;;;10480795;28;20028;-64
2022/03/21 23:15:57;;;;;;;27.00;14.65;;;11.70;79.60;;;;;;10485979;28;20024;-65
2022/03/21 23:20:58;;;;;;;30.77;14.20;;;11.70;79.70;;;;;;10479736;28;20023;-64
2022/03/21 23:25:59;;;;;;;28.30;13.90;;;11.70;79.70;;;;;;10472358;28;20446;-66
2022/03/21 23:31:00;;;;;;;29.20;14.32;;;11.60;79.60;;;;;;10483449;28;20181;-65
2022/03/21 23:36:02;;;;;;;26.23;13.85;;;11.70;79.70;;;;;;10476076;28;20441;-66
2022/03/21 23:46:23;;;;;;;24.80;12.88;;;11.60;79.60;;;;;;10484816;28;20048;-64
2022/03/21 23:51:23;;;;;;;25.15;13.23;;;11.60;79.60;;;;;;10462960;28;20445;-65
2022/03/21 23:56:24;;;;;;;22.77;12.57;;;11.50;79.60;;;;;;10469796;28;20088;-64
